Sabahat Telli — TCSQ6 — position and weather

sailwx.info

Track history (hours):
 
Tides and Currents Weather Stations Pressure Air Temp Water Temp Dewpoint Dewpoint Depression Visibility Wind Speed Wind Dir Waves Ship Positions

Sabahat Telli

Last reported at 2016-May-26 16:33 UTC. Time now 2016-May-26 20:24 UTC.
Position N 40°56' E 028°57'.

Length 99 m; draft 4.2 m.

Type: Tanker. MMSI: 271000961.

Date/timePositionNaut miles runAvg speedWind from/ knotsBaromVisibWave heightAir tempDewpointWater temp
2016-May-26 16:33N 40°56' E 028°57'1312.8
2016-May-26 15:34N 40°48' E 029°10'1312.0
2016-May-26 14:29N 40°45' E 029°27'3 0.1
2016-May-24 15:32N 40°44' E 029°23'1111.0
2016-May-24 14:33N 40°47' E 029°09'1211.9
2016-May-24 13:33N 40°55' E 028°57'306 8.2
2016-May-23 00:16N 43°56' E 034°30'912.6
2016-May-22 23:33N 44°01' E 034°41'1312.9
2016-May-22 22:31N 44°08' E 034°57'1312.9
2016-May-22 21:30N 44°15' E 035°12'1212.9
2016-May-22 20:33N 44°21' E 035°27'  
2016-May-20 14:33N 45°06' E 036°30'1313.0
2016-May-20 13:34N 44°53' E 036°30'6512.6
2016-May-20 08:26N 44°15' E 035°18'1113.0
2016-May-20 07:34N 44°08' E 035°04'33012.7
2016-May-19 05:33N 40°58' E 028°59'2 0.3
2016-May-18 21:32N 40°56' E 028°58'1212.4
2016-May-18 20:33N 40°47' E 029°10'1212.2
2016-May-18 19:33N 40°45' E 029°25'5 0.1
2016-May-17 03:23N 40°46' E 029°32'  
Track history (hours):
 
Tides and Currents Weather Stations Pressure Air Temp Water Temp Dewpoint Dewpoint Depression Visibility Wind Speed Wind Dir Waves Ship Positions

Sabahat Telli

Last reported at 2016-May-26 16:33 UTC. Time now 2016-May-26 20:24 UTC.
Position N 40°56' E 028°57'.

Length 99 m; draft 4.2 m.

Type: Tanker. MMSI: 271000961.

Date/timePositionNaut miles runAvg speedWind from/ knotsBaromVisibWave heightAir tempDewpointWater temp
2016-May-26 16:33N 40°56' E 028°57'1312.8
2016-May-26 15:34N 40°48' E 029°10'1312.0
2016-May-26 14:29N 40°45' E 029°27'3 0.1
2016-May-24 15:32N 40°44' E 029°23'1111.0
2016-May-24 14:33N 40°47' E 029°09'1211.9
2016-May-24 13:33N 40°55' E 028°57'306 8.2
2016-May-23 00:16N 43°56' E 034°30'912.6
2016-May-22 23:33N 44°01' E 034°41'1312.9
2016-May-22 22:31N 44°08' E 034°57'1312.9
2016-May-22 21:30N 44°15' E 035°12'1212.9
2016-May-22 20:33N 44°21' E 035°27'  
2016-May-20 14:33N 45°06' E 036°30'1313.0
2016-May-20 13:34N 44°53' E 036°30'6512.6
2016-May-20 08:26N 44°15' E 035°18'1113.0
2016-May-20 07:34N 44°08' E 035°04'33012.7
2016-May-19 05:33N 40°58' E 028°59'2 0.3
2016-May-18 21:32N 40°56' E 028°58'1212.4
2016-May-18 20:33N 40°47' E 029°10'1212.2
2016-May-18 19:33N 40°45' E 029°25'5 0.1
2016-May-17 03:23N 40°46' E 029°32'  

Dump ship's entire track history